Time;durP1;ratioP1;P1;durP2;ratioP2;P2;SDS_P1;SDS_P2;PMS_P1;PMS_P2;Temp;Humidity;BMP_temperature;BMP_pressure;BME280_temperature;BME280_humidity;BME280_pressure;Samples;Min_cycle;Max_cycle;Signal;HPM_P1;HPM_P2
2023/08/20 00:02:24;;;;;;;;;;;25.70;83.70;;;;;;5003579;28;20475;-73
2023/08/20 00:04:51;;;;;;;;;;;25.70;83.90;;;;;;5006398;28;19996;-73
2023/08/20 00:07:18;;;;;;;;;;;25.70;83.90;;;;;;5003755;28;19980;-73
2023/08/20 00:09:45;;;;;;;;;;;25.70;84.00;;;;;;5008090;28;19980;-73
2023/08/20 00:12:12;;;;;;;;;;;25.60;84.00;;;;;;5007864;28;20015;-73
2023/08/20 00:14:56;;;;;;;;;;;25.60;84.00;;;;;;5005432;28;20674;-73
2023/08/20 00:17:24;;;;;;;;;;;25.60;84.10;;;;;;5005482;28;20465;-73
2023/08/20 00:19:51;;;;;;;;;;;25.60;84.10;;;;;;5005635;28;20558;-73
2023/08/20 00:22:18;;;;;;;;;;;25.60;84.20;;;;;;5007446;28;19988;-73
2023/08/20 00:24:44;;;;;;;;;;;25.60;84.30;;;;;;5006022;28;20007;-73
2023/08/20 00:27:12;;;;;;;;;;;25.60;84.40;;;;;;5007982;28;19984;-73
2023/08/20 00:29:39;;;;;;;;;;;25.50;84.40;;;;;;5007141;28;19984;-73
2023/08/20 00:32:05;;;;;;;;;;;25.50;84.40;;;;;;5005481;28;20000;-73
2023/08/20 00:34:32;;;;;;;;;;;25.50;84.50;;;;;;5006304;28;20617;-73
2023/08/20 00:36:58;;;;;;;;;;;25.50;84.50;;;;;;5005850;28;20499;-73
2023/08/20 00:39:25;;;;;;;;;;;25.40;84.50;;;;;;5005297;28;20056;-73
2023/08/20 00:41:51;;;;;;;;;;;25.40;84.50;;;;;;5003814;28;19983;-73
2023/08/20 00:44:19;;;;;;;;;;;25.40;84.60;;;;;;5007072;28;19981;-72
2023/08/20 00:46:46;;;;;;;;;;;25.40;84.80;;;;;;5004882;28;20525;-72
2023/08/20 00:49:12;;;;;;;;;;;25.40;84.80;;;;;;5004891;28;19980;-73
2023/08/20 00:51:39;;;;;;;;;;;25.40;84.90;;;;;;5005932;28;19982;-73
2023/08/20 00:54:06;;;;;;;;;;;25.30;84.90;;;;;;5004606;28;19976;-73
2023/08/20 00:56:32;;;;;;;;;;;25.30;85.00;;;;;;5003420;28;19976;-73
2023/08/20 00:58:59;;;;;;;;;;;25.30;85.00;;;;;;5003360;28;19980;-73
2023/08/20 01:01:27;;;;;;;;;;;25.30;85.00;;;;;;5002126;28;19992;-73
2023/08/20 01:03:54;;;;;;;;;;;25.30;85.00;;;;;;5004715;28;19976;-73
2023/08/20 01:06:21;;;;;;;;;;;25.20;85.00;;;;;;5003754;28;19992;-72
2023/08/20 01:08:51;;;;;;;;;;;25.30;85.20;;;;;;5003620;28;19980;-73
2023/08/20 01:11:21;;;;;;;;;;;25.20;85.20;;;;;;5006150;28;19988;-72
2023/08/20 01:13:48;;;;;;;;;;;25.20;85.20;;;;;;5009239;28;19992;-73
2023/08/20 01:16:15;;;;;;;;;;;25.20;85.30;;;;;;5003694;28;20050;-72
2023/08/20 01:18:43;;;;;;;;;;;25.20;85.40;;;;;;5006264;28;19988;-73
2023/08/20 01:21:19;;;;;;;;;;;25.20;85.50;;;;;;5006185;28;20617;-72
2023/08/20 01:23:57;;;;;;;;;;;25.10;85.40;;;;;;5005712;28;19976;-72
2023/08/20 01:26:34;;;;;;;;;;;25.20;85.50;;;;;;5001979;28;19996;-72
2023/08/20 01:29:03;;;;;;;;;;;25.10;85.50;;;;;;5000778;28;20005;-73
2023/08/20 01:31:30;;;;;;;;;;;25.10;85.60;;;;;;5003242;28;19996;-72
2023/08/20 01:33:57;;;;;;;;;;;25.10;85.70;;;;;;5005000;28;19992;-72
2023/08/20 01:36:24;;;;;;;;;;;25.10;85.80;;;;;;5007751;28;19996;-73
2023/08/20 01:38:51;;;;;;;;;;;25.10;85.80;;;;;;5002390;28;19983;-73
2023/08/20 01:41:17;;;;;;;;;;;25.00;85.80;;;;;;5001306;28;19990;-72
2023/08/20 01:43:44;;;;;;;;;;;25.00;85.80;;;;;;5005933;28;20403;-72
2023/08/20 01:46:12;;;;;;;;;;;25.00;85.90;;;;;;5004462;28;20019;-72
2023/08/20 01:48:39;;;;;;;;;;;25.00;86.00;;;;;;5005863;28;20008;-72
2023/08/20 01:51:06;;;;;;;;;;;25.00;86.00;;;;;;5005508;28;19984;-72
2023/08/20 01:53:32;;;;;;;;;;;24.90;86.00;;;;;;5007293;28;19999;-72
2023/08/20 01:55:59;;;;;;;;;;;24.90;86.00;;;;;;5002375;28;19992;-73
2023/08/20 01:58:25;;;;;;;;;;;24.90;86.10;;;;;;5003430;28;20548;-72
2023/08/20 02:00:52;;;;;;;;;;;24.90;86.10;;;;;;5001699;28;20083;-72
2023/08/20 02:03:20;;;;;;;;;;;24.90;86.10;;;;;;5004438;28;19983;-73
2023/08/20 02:05:46;;;;;;;;;;;24.90;86.20;;;;;;5004029;28;19992;-73
2023/08/20 02:08:13;;;;;;;;;;;24.80;86.20;;;;;;5001761;28;19987;-73
2023/08/20 02:10:39;;;;;;;;;;;24.80;86.20;;;;;;5004693;28;19992;-73
2023/08/20 02:13:07;;;;;;;;;;;24.80;86.30;;;;;;5005031;28;19992;-72
2023/08/20 02:15:33;;;;;;;;;;;24.80;86.40;;;;;;4999538;28;20000;-72
2023/08/20 02:18:01;;;;;;;;;;;24.80;86.40;;;;;;5004582;28;20433;-72
2023/08/20 02:20:28;;;;;;;;;;;24.80;86.40;;;;;;5004555;28;20014;-72
2023/08/20 02:22:55;;;;;;;;;;;24.70;86.40;;;;;;5004865;28;21225;-73
2023/08/20 02:25:22;;;;;;;;;;;24.70;86.40;;;;;;5002519;28;20050;-73
2023/08/20 02:27:48;;;;;;;;;;;24.70;86.50;;;;;;5003451;28;19981;-72
2023/08/20 02:30:15;;;;;;;;;;;24.70;86.60;;;;;;4999000;28;19983;-73
2023/08/20 02:32:41;;;;;;;;;;;24.70;86.60;;;;;;5001506;28;20770;-73
2023/08/20 02:35:08;;;;;;;;;;;24.60;86.50;;;;;;5006117;28;19999;-72
2023/08/20 02:37:36;;;;;;;;;;;24.60;86.50;;;;;;5003691;28;19992;-72
2023/08/20 02:40:04;;;;;;;;;;;24.60;86.50;;;;;;5002114;28;20465;-72
2023/08/20 02:42:31;;;;;;;;;;;24.60;86.50;;;;;;5003651;28;19976;-73
2023/08/20 02:44:57;;;;;;;;;;;24.60;86.60;;;;;;5005118;28;20382;-73
2023/08/20 02:47:24;;;;;;;;;;;24.50;86.50;;;;;;5001202;28;20011;-72
2023/08/20 02:49:50;;;;;;;;;;;24.50;86.60;;;;;;5004492;28;19983;-73
2023/08/20 02:52:17;;;;;;;;;;;24.50;86.70;;;;;;5004439;28;19985;-73
2023/08/20 02:54:45;;;;;;;;;;;24.50;86.70;;;;;;5003399;28;20004;-73
2023/08/20 02:57:11;;;;;;;;;;;24.50;86.70;;;;;;5001516;28;19976;-73
2023/08/20 02:59:38;;;;;;;;;;;24.40;86.60;;;;;;5003280;28;19972;-73
2023/08/20 03:02:04;;;;;;;;;;;24.40;86.70;;;;;;5003095;28;19988;-72
2023/08/20 03:04:31;;;;;;;;;;;24.40;86.70;;;;;;5001148;28;19992;-73
2023/08/20 03:06:57;;;;;;;;;;;24.40;86.70;;;;;;5000857;28;20425;-73
2023/08/20 03:09:24;;;;;;;;;;;24.30;86.60;;;;;;5007784;28;19979;-72
2023/08/20 03:11:52;;;;;;;;;;;24.30;86.60;;;;;;5008210;28;20574;-72
2023/08/20 03:14:18;;;;;;;;;;;24.30;86.60;;;;;;5007751;28;19992;-72
2023/08/20 03:16:45;;;;;;;;;;;24.30;86.60;;;;;;5005897;28;20004;-72
2023/08/20 03:19:11;;;;;;;;;;;24.30;86.70;;;;;;5005638;28;19984;-72
2023/08/20 03:21:38;;;;;;;;;;;24.20;86.60;;;;;;5003229;28;19980;-72
2023/08/20 03:24:05;;;;;;;;;;;24.20;86.60;;;;;;5005218;28;19976;-72
2023/08/20 03:26:31;;;;;;;;;;;24.20;86.70;;;;;;5007543;28;19980;-72
2023/08/20 03:28:59;;;;;;;;;;;24.20;86.70;;;;;;5007680;28;19983;-72
2023/08/20 03:31:26;;;;;;;;;;;24.20;86.80;;;;;;5005217;28;19999;-72
2023/08/20 03:33:52;;;;;;;;;;;24.20;87.50;;;;;;5009896;28;20000;-72
2023/08/20 03:36:19;;;;;;;;;;;24.10;86.70;;;;;;5009223;28;19996;-72
2023/08/20 03:38:45;;;;;;;;;;;24.10;86.70;;;;;;5003003;28;20350;-72
2023/08/20 03:41:12;;;;;;;;;;;24.10;86.70;;;;;;5004513;28;20377;-72
2023/08/20 03:43:38;;;;;;;;;;;24.10;86.70;;;;;;5007715;28;20038;-72
2023/08/20 03:46:06;;;;;;;;;;;24.10;86.80;;;;;;5005144;28;20003;-73
2023/08/20 03:48:33;;;;;;;;;;;24.10;86.80;;;;;;5007359;28;20019;-72
2023/08/20 03:50:59;;;;;;;;;;;24.00;86.80;;;;;;5008231;28;19980;-73
2023/08/20 03:53:26;;;;;;;;;;;24.00;86.80;;;;;;5005445;28;20003;-72
2023/08/20 03:55:52;;;;;;;;;;;24.00;86.80;;;;;;5003124;28;19996;-72
2023/08/20 03:58:19;;;;;;;;;;;24.00;86.80;;;;;;5007487;28;19982;-72
2023/08/20 04:00:45;;;;;;;;;;;24.00;86.90;;;;;;5003922;28;20000;-73
2023/08/20 04:03:14;;;;;;;;;;;23.90;86.80;;;;;;5006558;28;19988;-72
2023/08/20 04:05:40;;;;;;;;;;;23.90;86.90;;;;;;5005945;28;19992;-72
2023/08/20 04:08:07;;;;;;;;;;;23.90;86.90;;;;;;5004569;28;19981;-72
2023/08/20 04:10:33;;;;;;;;;;;23.90;86.90;;;;;;5004716;28;19988;-72
2023/08/20 04:13:00;;;;;;;;;;;23.90;86.90;;;;;;5004765;28;20003;-72
2023/08/20 04:15:26;;;;;;;;;;;23.80;86.90;;;;;;5004293;28;20012;-72
2023/08/20 04:17:53;;;;;;;;;;;23.80;86.90;;;;;;5007145;28;20060;-72
2023/08/20 04:20:21;;;;;;;;;;;23.80;86.90;;;;;;5007092;28;20066;-72
2023/08/20 04:22:47;;;;;;;;;;;23.80;86.90;;;;;;5006181;28;19992;-72
2023/08/20 04:25:14;;;;;;;;;;;23.80;86.90;;;;;;5005426;28;19997;-72
2023/08/20 04:27:41;;;;;;;;;;;23.70;86.90;;;;;;5006818;28;19981;-72
2023/08/20 04:30:08;;;;;;;;;;;23.70;86.90;;;;;;5007171;28;19976;-72
2023/08/20 04:32:34;;;;;;;;;;;23.70;86.90;;;;;;5003862;28;20000;-72
2023/08/20 04:35:01;;;;;;;;;;;23.70;86.90;;;;;;5005907;28;20001;-72
2023/08/20 04:37:29;;;;;;;;;;;23.70;87.00;;;;;;5003471;28;20823;-72
2023/08/20 04:39:55;;;;;;;;;;;23.60;86.90;;;;;;5006123;28;19981;-72
2023/08/20 04:42:22;;;;;;;;;;;23.60;86.90;;;;;;5003623;28;19976;-72
2023/08/20 04:44:48;;;;;;;;;;;23.60;86.90;;;;;;5006520;28;20003;-72
2023/08/20 04:47:15;;;;;;;;;;;23.60;86.90;;;;;;5003651;28;20461;-71
2023/08/20 04:49:42;;;;;;;;;;;23.60;87.00;;;;;;5006803;28;20744;-72
2023/08/20 04:52:08;;;;;;;;;;;23.50;87.10;;;;;;5005931;28;20339;-73
2023/08/20 04:54:36;;;;;;;;;;;23.50;87.10;;;;;;5000824;28;19997;-73
2023/08/20 04:57:03;;;;;;;;;;;23.50;87.20;;;;;;5006021;28;19984;-72
2023/08/20 04:59:29;;;;;;;;;;;23.50;87.20;;;;;;5004706;28;19983;-72
2023/08/20 05:01:56;;;;;;;;;;;23.50;87.20;;;;;;5005105;28;20016;-72
2023/08/20 05:04:23;;;;;;;;;;;23.50;87.20;;;;;;5004761;28;20735;-72
2023/08/20 05:06:49;;;;;;;;;;;23.50;87.30;;;;;;5002910;28;19985;-72
2023/08/20 05:09:16;;;;;;;;;;;23.50;87.30;;;;;;5006282;28;19972;-72
2023/08/20 05:11:44;;;;;;;;;;;23.50;87.30;;;;;;5005712;28;19980;-71
2023/08/20 05:14:11;;;;;;;;;;;23.40;87.30;;;;;;4998666;28;20466;-73
2023/08/20 05:16:37;;;;;;;;;;;23.40;87.30;;;;;;5003745;28;20378;-72
2023/08/20 05:19:04;;;;;;;;;;;23.50;87.40;;;;;;5006271;28;19988;-73
2023/08/20 05:21:31;;;;;;;;;;;23.40;87.40;;;;;;5005958;28;19991;-72
2023/08/20 05:23:57;;;;;;;;;;;23.40;88.10;;;;;;4999613;28;19980;-72
2023/08/20 05:26:24;;;;;;;;;;;23.40;87.40;;;;;;5005843;28;19992;-73
2023/08/20 05:28:52;;;;;;;;;;;23.40;87.50;;;;;;5006191;28;20434;-72
2023/08/20 05:31:18;;;;;;;;;;;23.40;87.50;;;;;;5001407;28;19996;-72
2023/08/20 05:33:45;;;;;;;;;;;23.40;87.50;;;;;;5003470;28;20003;-72
2023/08/20 05:36:11;;;;;;;;;;;23.30;87.50;;;;;;5005427;28;19996;-72
2023/08/20 05:38:38;;;;;;;;;;;23.30;87.60;;;;;;5003079;28;19985;-73
2023/08/20 05:41:04;;;;;;;;;;;23.30;87.60;;;;;;5001377;28;20006;-72
2023/08/20 05:43:31;;;;;;;;;;;23.30;87.70;;;;;;5005634;28;19980;-72
2023/08/20 05:45:59;;;;;;;;;;;23.30;87.70;;;;;;5001107;28;21501;-72
2023/08/20 05:48:25;;;;;;;;;;;23.30;87.80;;;;;;5006299;28;19980;-72
2023/08/20 05:50:52;;;;;;;;;;;23.30;87.80;;;;;;5005740;28;19988;-72
2023/08/20 05:53:18;;;;;;;;;;;23.30;87.80;;;;;;5003990;28;19976;-72
2023/08/20 05:55:45;;;;;;;;;;;23.30;87.80;;;;;;5005377;28;20011;-71
2023/08/20 05:58:11;;;;;;;;;;;23.30;87.90;;;;;;5005189;28;19987;-72
2023/08/20 06:00:38;;;;;;;;;;;23.20;87.80;;;;;;5003821;28;19992;-72
2023/08/20 06:03:07;;;;;;;;;;;23.30;87.90;;;;;;5005270;28;20008;-72
2023/08/20 06:05:33;;;;;;;;;;;23.20;87.90;;;;;;5002752;28;20083;-72
2023/08/20 06:08:00;;;;;;;;;;;23.30;88.00;;;;;;5002164;28;19980;-72
2023/08/20 06:10:27;;;;;;;;;;;23.20;87.90;;;;;;5004980;28;19984;-72
2023/08/20 06:12:53;;;;;;;;;;;23.30;88.00;;;;;;5004886;28;20067;-72
2023/08/20 06:15:20;;;;;;;;;;;23.30;88.00;;;;;;5001705;28;20001;-73
2023/08/20 06:17:46;;;;;;;;;;;23.20;88.00;;;;;;5002643;28;19988;-72
2023/08/20 06:20:14;;;;;;;;;;;23.30;88.10;;;;;;5003068;28;20445;-72
2023/08/20 06:22:41;;;;;;;;;;;23.20;88.00;;;;;;5004796;28;19985;-72
2023/08/20 06:25:08;;;;;;;;;;;23.30;88.10;;;;;;5004015;28;19988;-72
2023/08/20 06:27:34;;;;;;;;;;;23.30;88.10;;;;;;5005156;28;19972;-72
2023/08/20 06:30:01;;;;;;;;;;;23.30;88.10;;;;;;5004896;28;19984;-72
2023/08/20 06:32:27;;;;;;;;;;;23.30;88.10;;;;;;5001709;28;19996;-72
2023/08/20 06:34:54;;;;;;;;;;;23.30;88.10;;;;;;5002486;28;20007;-73
2023/08/20 06:37:22;;;;;;;;;;;23.20;88.00;;;;;;5004715;28;19987;-72
2023/08/20 06:39:48;;;;;;;;;;;23.30;88.10;;;;;;5001808;28;19984;-73
2023/08/20 06:42:15;;;;;;;;;;;23.30;88.10;;;;;;5007582;28;19977;-72
2023/08/20 06:44:41;;;;;;;;;;;23.30;88.20;;;;;;5004704;28;20646;-71
2023/08/20 06:47:08;;;;;;;;;;;23.30;88.20;;;;;;5002294;28;19999;-72
2023/08/20 06:49:34;;;;;;;;;;;23.30;88.20;;;;;;5005224;28;19980;-74
2023/08/20 06:52:01;;;;;;;;;;;23.30;88.20;;;;;;5002693;28;19981;-72
2023/08/20 06:54:29;;;;;;;;;;;23.30;88.30;;;;;;5004178;28;20003;-72
2023/08/20 06:56:55;;;;;;;;;;;23.30;88.30;;;;;;5003373;28;19980;-72
2023/08/20 06:59:22;;;;;;;;;;;23.30;88.30;;;;;;5004976;28;20744;-72
2023/08/20 07:01:49;;;;;;;;;;;23.30;88.30;;;;;;5005465;28;20039;-72
2023/08/20 07:04:15;;;;;;;;;;;23.30;88.30;;;;;;5004732;28;19999;-72
2023/08/20 07:06:42;;;;;;;;;;;23.30;88.30;;;;;;5002692;28;20460;-73
2023/08/20 07:09:09;;;;;;;;;;;23.30;88.30;;;;;;5003162;28;20423;-73
2023/08/20 07:11:37;;;;;;;;;;;23.30;88.40;;;;;;5004262;28;20067;-72
2023/08/20 07:14:04;;;;;;;;;;;23.30;88.40;;;;;;5004101;28;19993;-72
2023/08/20 07:16:30;;;;;;;;;;;23.30;88.60;;;;;;5001144;28;20000;-72
2023/08/20 07:18:57;;;;;;;;;;;23.40;88.80;;;;;;5004803;28;19984;-73
2023/08/20 07:21:23;;;;;;;;;;;23.40;88.80;;;;;;5004052;28;19984;-73
2023/08/20 07:23:50;;;;;;;;;;;23.40;88.60;;;;;;5001793;28;20004;-74
2023/08/20 07:26:16;;;;;;;;;;;23.40;88.40;;;;;;4998830;28;19996;-73
2023/08/20 07:28:59;;;;;;;;;;;23.40;88.40;;;;;;5004078;28;20011;-73
2023/08/20 07:31:26;;;;;;;;;;;23.40;88.50;;;;;;5000851;28;19992;-73
2023/08/20 07:33:53;;;;;;;;;;;23.40;88.60;;;;;;5004118;28;20008;-72
2023/08/20 07:36:21;;;;;;;;;;;23.40;88.60;;;;;;5003919;28;19999;-73
2023/08/20 07:38:48;;;;;;;;;;;23.50;88.80;;;;;;4999101;28;19980;-73
2023/08/20 07:41:15;;;;;;;;;;;23.50;89.00;;;;;;5004036;28;19976;-73
2023/08/20 07:43:41;;;;;;;;;;;23.50;88.90;;;;;;5004424;28;20433;-73
2023/08/20 07:46:09;;;;;;;;;;;23.50;88.90;;;;;;4999763;28;19996;-73
2023/08/20 07:48:36;;;;;;;;;;;23.60;89.00;;;;;;5003759;28;19987;-72
2023/08/20 07:51:03;;;;;;;;;;;23.60;89.20;;;;;;5000006;28;19976;-73
2023/08/20 07:53:30;;;;;;;;;;;23.60;89.20;;;;;;5004347;28;19987;-73
2023/08/20 07:55:56;;;;;;;;;;;23.60;89.00;;;;;;5010389;28;20007;-73
2023/08/20 07:58:23;;;;;;;;;;;23.70;89.00;;;;;;4999788;28;19973;-73
2023/08/20 08:00:50;;;;;;;;;;;23.70;89.10;;;;;;5006303;28;19992;-73
2023/08/20 08:03:17;;;;;;;;;;;23.70;89.10;;;;;;5006465;28;19980;-73
2023/08/20 08:05:46;;;;;;;;;;;23.80;89.30;;;;;;5005333;28;20091;-72
2023/08/20 08:08:13;;;;;;;;;;;23.80;89.30;;;;;;5005060;28;19973;-72
2023/08/20 08:10:40;;;;;;;;;;;23.80;89.00;;;;;;5007530;28;19988;-73
2023/08/20 08:13:06;;;;;;;;;;;23.80;88.90;;;;;;5004294;28;20079;-73
2023/08/20 08:15:33;;;;;;;;;;;23.80;88.90;;;;;;5000120;28;20010;-73
2023/08/20 08:17:59;;;;;;;;;;;23.90;88.90;;;;;;5007081;28;19976;-73
2023/08/20 08:20:27;;;;;;;;;;;23.90;88.80;;;;;;5007996;28;19983;-73
2023/08/20 08:22:54;;;;;;;;;;;23.90;88.90;;;;;;5006126;28;19988;-73
2023/08/20 08:25:20;;;;;;;;;;;24.00;89.20;;;;;;5002831;28;19992;-73
2023/08/20 08:27:47;;;;;;;;;;;24.00;89.10;;;;;;5005915;28;20450;-73
2023/08/20 08:30:14;;;;;;;;;;;24.00;89.00;;;;;;5004305;28;19981;-73
2023/08/20 08:32:40;;;;;;;;;;;24.10;89.00;;;;;;5006691;28;19985;-72
2023/08/20 08:35:08;;;;;;;;;;;24.10;89.00;;;;;;5006119;28;20008;-71
2023/08/20 08:37:35;;;;;;;;;;;24.20;88.90;;;;;;5006841;28;19983;-72
2023/08/20 08:40:05;;;;;;;;;;;24.20;88.70;;;;;;5001934;28;19985;-72
2023/08/20 08:42:33;;;;;;;;;;;24.20;88.60;;;;;;5004733;28;19980;-72
2023/08/20 08:45:00;;;;;;;;;;;24.20;88.50;;;;;;5006097;28;20000;-72
2023/08/20 08:47:27;;;;;;;;;;;24.30;88.60;;;;;;5004105;28;19996;-72
2023/08/20 08:49:56;;;;;;;;;;;24.30;88.60;;;;;;5006468;28;20087;-72
2023/08/20 08:52:23;;;;;;;;;;;24.30;88.40;;;;;;5006471;28;19976;-72
2023/08/20 08:54:51;;;;;;;;;;;24.40;88.30;;;;;;5005443;28;20005;-72
2023/08/20 08:57:18;;;;;;;;;;;24.40;88.30;;;;;;5004298;28;19984;-72
2023/08/20 08:59:45;;;;;;;;;;;24.40;88.10;;;;;;5005617;28;19987;-72
2023/08/20 09:02:12;;;;;;;;;;;24.50;87.90;;;;;;5000682;28;19996;-72
2023/08/20 09:04:39;;;;;;;;;;;24.50;87.60;;;;;;5002746;28;19997;-72
2023/08/20 09:07:06;;;;;;;;;;;24.60;87.50;;;;;;4999850;28;20072;-72
2023/08/20 09:09:32;;;;;;;;;;;24.70;87.40;;;;;;5007137;28;19981;-72
2023/08/20 09:12:00;;;;;;;;;;;24.70;87.20;;;;;;5005322;28;20004;-71
2023/08/20 09:14:28;;;;;;;;;;;24.80;87.10;;;;;;5004843;28;20010;-72
2023/08/20 09:16:56;;;;;;;;;;;24.90;86.90;;;;;;5002134;28;19992;-72
2023/08/20 09:19:23;;;;;;;;;;;24.90;86.70;;;;;;5011921;28;20104;-72
2023/08/20 09:21:52;;;;;;;;;;;24.90;87.20;;;;;;5006099;28;19984;-71
2023/08/20 09:24:26;;;;;;;;;;;25.00;86.30;;;;;;5005657;28;19983;-72
2023/08/20 09:26:57;;;;;;;;;;;25.10;86.00;;;;;;5003974;28;19987;-72
2023/08/20 09:29:25;;;;;;;;;;;25.20;86.00;;;;;;5000586;28;20002;-72
2023/08/20 09:32:00;;;;;;;;;;;25.20;85.70;;;;;;5008310;28;19996;-72
2023/08/20 09:34:27;;;;;;;;;;;25.30;85.50;;;;;;5003533;28;20555;-73
2023/08/20 09:36:53;;;;;;;;;;;25.40;85.30;;;;;;5007035;28;20648;-72
2023/08/20 09:39:20;;;;;;;;;;;25.40;85.20;;;;;;5005933;28;19983;-72
2023/08/20 09:41:48;;;;;;;;;;;25.50;85.00;;;;;;5001196;28;19991;-72
2023/08/20 09:44:16;;;;;;;;;;;25.60;84.80;;;;;;5004637;28;20227;-72
2023/08/20 09:46:44;;;;;;;;;;;25.60;84.40;;;;;;5002694;28;20004;-72
2023/08/20 09:49:13;;;;;;;;;;;25.70;84.30;;;;;;5004807;28;19988;-72
2023/08/20 09:51:40;;;;;;;;;;;25.70;84.10;;;;;;5005154;28;19985;-72
2023/08/20 09:54:12;;;;;;;;;;;25.80;83.70;;;;;;5001883;28;20011;-74
2023/08/20 09:56:39;;;;;;;;;;;25.80;83.60;;;;;;4999169;28;19996;-72
2023/08/20 09:59:06;;;;;;;;;;;25.90;83.30;;;;;;5004622;28;20442;-72
2023/08/20 10:01:33;;;;;;;;;;;25.90;83.10;;;;;;5002237;28;19992;-72
2023/08/20 10:04:01;;;;;;;;;;;26.00;82.90;;;;;;5003220;28;19987;-72
2023/08/20 10:06:28;;;;;;;;;;;26.10;82.70;;;;;;5002917;28;20001;-72
2023/08/20 10:08:55;;;;;;;;;;;26.10;82.50;;;;;;5004505;28;19980;-73
2023/08/20 10:11:21;;;;;;;;;;;26.20;82.30;;;;;;5004833;28;20663;-73
2023/08/20 10:13:48;;;;;;;;;;;26.30;82.10;;;;;;5002765;28;19985;-72
2023/08/20 10:16:19;;;;;;;;;;;26.30;82.00;;;;;;5000660;28;20007;-73
2023/08/20 10:18:47;;;;;;;;;;;26.40;81.70;;;;;;5005297;28;20016;-73
2023/08/20 10:21:14;;;;;;;;;;;26.50;81.60;;;;;;5004767;28;20335;-73
2023/08/20 10:23:42;;;;;;;;;;;26.50;81.30;;;;;;5004868;28;20033;-73
2023/08/20 10:26:09;;;;;;;;;;;26.60;81.20;;;;;;5003822;28;20783;-72
2023/08/20 10:28:36;;;;;;;;;;;26.70;81.10;;;;;;5002831;28;20023;-72
2023/08/20 10:31:07;;;;;;;;;;;26.70;80.90;;;;;;4991397;28;20047;-73
2023/08/20 10:33:34;;;;;;;;;;;26.80;80.80;;;;;;5004776;28;20445;-73
2023/08/20 10:36:07;;;;;;;;;;;26.90;80.60;;;;;;5004927;28;20054;-73
2023/08/20 10:38:38;;;;;;;;;;;26.90;80.30;;;;;;5005567;28;20063;-72
2023/08/20 10:41:07;;;;;;;;;;;27.00;80.00;;;;;;5003547;28;19983;-72
2023/08/20 10:43:34;;;;;;;;;;;27.10;79.90;;;;;;5003734;28;19976;-72
2023/08/20 10:46:04;;;;;;;;;;;27.10;79.70;;;;;;4997874;28;20004;-72
2023/08/20 10:48:31;;;;;;;;;;;27.20;79.60;;;;;;5003943;28;20067;-73
2023/08/20 10:50:58;;;;;;;;;;;27.30;78.80;;;;;;5005323;28;20063;-73
2023/08/20 10:53:25;;;;;;;;;;;27.40;79.00;;;;;;5004305;28;19981;-73
2023/08/20 10:55:53;;;;;;;;;;;27.40;78.80;;;;;;5003240;28;20000;-73
2023/08/20 10:58:24;;;;;;;;;;;27.50;78.70;;;;;;5002931;28;19977;-72
2023/08/20 11:01:05;;;;;;;;;;;27.50;78.40;;;;;;4999398;28;20421;-73
2023/08/20 11:03:33;;;;;;;;;;;27.60;77.90;;;;;;4995263;28;19980;-72
2023/08/20 11:06:00;;;;;;;;;;;27.70;77.90;;;;;;5004560;28;20072;-72
2023/08/20 11:08:26;;;;;;;;;;;27.70;77.70;;;;;;4999172;28;19988;-73
2023/08/20 11:10:54;;;;;;;;;;;27.80;77.40;;;;;;5004243;28;19984;-72
2023/08/20 11:13:23;;;;;;;;;;;27.80;77.50;;;;;;5003375;28;21384;-72
2023/08/20 11:15:49;;;;;;;;;;;27.90;77.40;;;;;;5000255;28;20377;-72
2023/08/20 11:18:16;;;;;;;;;;;27.90;77.20;;;;;;5003920;28;19988;-72
2023/08/20 11:20:42;;;;;;;;;;;28.00;76.60;;;;;;5002988;28;19980;-73
2023/08/20 11:23:10;;;;;;;;;;;28.00;76.80;;;;;;5001261;28;20343;-72
2023/08/20 11:25:41;;;;;;;;;;;28.10;76.70;;;;;;5002909;28;20024;-73
2023/08/20 11:28:09;;;;;;;;;;;28.10;76.70;;;;;;5004544;28;19988;-72
2023/08/20 11:30:36;;;;;;;;;;;28.20;76.60;;;;;;5003623;28;20488;-73
2023/08/20 11:33:02;;;;;;;;;;;28.30;76.50;;;;;;5008574;28;20131;-72
2023/08/20 11:35:29;;;;;;;;;;;28.30;76.40;;;;;;5005375;28;20484;-72
2023/08/20 11:37:56;;;;;;;;;;;28.40;76.30;;;;;;5008464;28;19991;-72
2023/08/20 11:40:23;;;;;;;;;;;28.40;76.10;;;;;;5004130;28;20018;-73
2023/08/20 11:42:49;;;;;;;;;;;28.50;75.90;;;;;;5006071;28;19984;-73
2023/08/20 11:45:17;;;;;;;;;;;28.50;75.50;;;;;;5006245;28;19996;-73
2023/08/20 11:47:44;;;;;;;;;;;28.60;75.40;;;;;;5007951;28;19998;-73
2023/08/20 11:50:10;;;;;;;;;;;28.70;75.40;;;;;;5006052;28;20382;-72
2023/08/20 11:52:39;;;;;;;;;;;28.70;75.00;;;;;;5006421;28;20013;-73
2023/08/20 11:55:06;;;;;;;;;;;28.80;74.90;;;;;;5004445;28;20485;-79
2023/08/20 11:57:32;;;;;;;;;;;28.80;74.50;;;;;;5006625;28;19993;-78
2023/08/20 12:00:03;;;;;;;;;;;28.90;74.60;;;;;;5006191;28;19980;-78
2023/08/20 12:02:31;;;;;;;;;;;28.90;74.20;;;;;;5003786;28;19992;-78
2023/08/20 12:04:58;;;;;;;;;;;29.00;74.30;;;;;;5004606;28;19992;-77
2023/08/20 12:07:26;;;;;;;;;;;29.10;74.40;;;;;;5004076;28;20437;-78
2023/08/20 12:09:52;;;;;;;;;;;29.10;74.00;;;;;;5007630;28;19981;-78
2023/08/20 12:12:20;;;;;;;;;;;29.10;73.80;;;;;;5005393;28;19976;-78
2023/08/20 12:14:47;;;;;;;;;;;29.20;73.80;;;;;;5003048;28;19992;-79
2023/08/20 12:17:13;;;;;;;;;;;29.30;73.70;;;;;;5006891;28;20001;-79
2023/08/20 12:19:41;;;;;;;;;;;29.30;73.60;;;;;;5005942;28;20072;-79
2023/08/20 12:22:08;;;;;;;;;;;29.40;73.50;;;;;;5008078;28;20626;-81
2023/08/20 12:27:03;;;;;;;;;;;29.40;73.10;;;;;;5007974;28;20071;-79
2023/08/20 12:29:30;;;;;;;;;;;29.50;72.60;;;;;;4997245;28;19976;-79
2023/08/20 12:31:56;;;;;;;;;;;29.50;72.10;;;;;;4984523;28;19996;-79
2023/08/20 12:34:23;;;;;;;;;;;29.50;72.00;;;;;;4975157;28;20017;-79
2023/08/20 12:36:51;;;;;;;;;;;29.60;72.10;;;;;;4983469;28;20039;-79
2023/08/20 12:39:18;;;;;;;;;;;29.70;72.10;;;;;;5067594;23;19995;-78
2023/08/20 12:41:44;;;;;;;;;;;29.80;72.10;;;;;;5062384;28;19980;-77
2023/08/20 12:44:11;;;;;;;;;;;29.80;71.90;;;;;;5066051;28;20200;-78
2023/08/20 12:46:37;;;;;;;;;;;29.90;71.60;;;;;;5045091;28;20574;-78
2023/08/20 12:49:04;;;;;;;;;;;30.00;71.30;;;;;;5039506;28;19976;-78
2023/08/20 12:51:31;;;;;;;;;;;30.00;71.00;;;;;;5038920;28;20022;-78
2023/08/20 12:53:59;;;;;;;;;;;30.10;70.60;;;;;;5040316;28;19979;-78
2023/08/20 12:56:26;;;;;;;;;;;30.20;70.50;;;;;;5038418;28;20000;-78
2023/08/20 12:58:52;;;;;;;;;;;30.20;70.40;;;;;;5044079;28;20560;-79
2023/08/20 13:01:19;;;;;;;;;;;30.30;70.30;;;;;;5038255;28;20018;-79
2023/08/20 13:03:46;;;;;;;;;;;30.30;70.00;;;;;;5037504;28;20066;-78
2023/08/20 13:06:13;;;;;;;;;;;30.40;69.80;;;;;;5037563;28;19992;-78
2023/08/20 13:08:41;;;;;;;;;;;30.40;69.40;;;;;;5039213;28;19991;-74
2023/08/20 13:11:12;;;;;;;;;;;30.40;69.00;;;;;;5043260;28;19980;-74
2023/08/20 13:13:38;;;;;;;;;;;30.50;68.90;;;;;;5044088;28;20031;-73
2023/08/20 13:16:05;;;;;;;;;;;30.50;68.40;;;;;;5037859;28;20004;-74
2023/08/20 13:18:32;;;;;;;;;;;30.60;68.80;;;;;;5039088;28;19980;-74
2023/08/20 13:20:59;;;;;;;;;;;30.60;68.90;;;;;;5039146;28;20037;-74
2023/08/20 13:23:25;;;;;;;;;;;30.60;68.80;;;;;;5036628;28;20152;-74
2023/08/20 13:25:52;;;;;;;;;;;30.70;68.70;;;;;;5037560;28;20790;-74
2023/08/20 13:28:19;;;;;;;;;;;30.70;68.60;;;;;;5043281;28;19984;-73
2023/08/20 13:30:46;;;;;;;;;;;30.80;67.90;;;;;;5035533;28;20003;-74
2023/08/20 13:33:13;;;;;;;;;;;30.90;67.60;;;;;;5040772;28;19984;-74
2023/08/20 13:35:39;;;;;;;;;;;30.90;67.30;;;;;;5028901;28;20485;-74
2023/08/20 13:38:06;;;;;;;;;;;30.90;67.50;;;;;;5032935;28;19995;-74
2023/08/20 13:40:32;;;;;;;;;;;31.00;67.60;;;;;;5031613;28;20557;-74
2023/08/20 13:42:59;;;;;;;;;;;31.00;67.30;;;;;;5043431;28;19987;-74
2023/08/20 13:45:27;;;;;;;;;;;31.10;66.80;;;;;;5034610;28;20011;-74
2023/08/20 13:47:53;;;;;;;;;;;31.10;65.60;;;;;;5037669;28;19979;-74
2023/08/20 13:50:20;;;;;;;;;;;31.20;65.90;;;;;;5041008;28;19980;-74
2023/08/20 13:52:46;;;;;;;;;;;31.20;66.00;;;;;;5042408;28;19983;-74
2023/08/20 13:55:13;;;;;;;;;;;31.30;66.00;;;;;;5036698;28;19992;-75
2023/08/20 13:57:40;;;;;;;;;;;31.40;65.80;;;;;;5035832;28;20647;-74
2023/08/20 14:00:09;;;;;;;;;;;31.40;65.50;;;;;;5033277;28;19976;-74
2023/08/20 14:02:37;;;;;;;;;;;31.50;65.40;;;;;;5036046;28;19990;-74
2023/08/20 14:05:05;;;;;;;;;;;31.50;65.00;;;;;;5031807;28;20642;-74
2023/08/20 14:07:32;;;;;;;;;;;31.60;64.70;;;;;;5042456;28;19982;-74
2023/08/20 14:09:59;;;;;;;;;;;31.60;64.40;;;;;;5039837;28;20756;-74
2023/08/20 14:12:25;;;;;;;;;;;31.70;63.50;;;;;;5039013;28;20003;-74
2023/08/20 14:14:52;;;;;;;;;;;31.70;63.60;;;;;;5033717;28;20465;-74
2023/08/20 14:17:19;;;;;;;;;;;31.70;63.60;;;;;;5036773;28;19996;-74
2023/08/20 14:19:46;;;;;;;;;;;31.80;63.70;;;;;;5032688;28;19980;-73